Time;durP1;ratioP1;P1;durP2;ratioP2;P2;SDS_P1;SDS_P2;PMS_P1;PMS_P2;Temp;Humidity;BMP_temperature;BMP_pressure;BME280_temperature;BME280_humidity;BME280_pressure;Samples;Min_cycle;Max_cycle;Signal;HPM_P1;HPM_P2
2021/12/21 00:02:10;;;;;;;;;;;;;;;-3.72;77.05;96238.22;6396953;27;19930;-63
2021/12/21 00:05:16;;;;;;;;;;;;;;;-3.60;76.96;96217.41;6397171;27;19923;-62
2021/12/21 00:08:18;;;;;;;;;;;;;;;-3.68;77.54;96235.56;6396957;27;19965;-62
2021/12/21 00:11:19;;;;;;;;;;;;;;;-3.49;76.96;96228.31;6396669;27;20430;-62
2021/12/21 00:14:38;;;;;;;;;;;;;;;-3.48;76.36;96234.31;6397293;27;19930;-62
2021/12/21 00:23:50;;;;;;;;;;;;;;;-3.76;78.15;96221.16;6396134;27;19923;-62
2021/12/21 00:26:51;;;;;;;;;;;;;;;-3.56;77.92;96215.63;6397289;27;19967;-62
2021/12/21 00:29:52;;;;;;;;;;;;;;;-3.70;77.81;96227.03;6397228;27;19926;-63
2021/12/21 00:32:54;;;;;;;;;;;;;;;-3.54;77.76;96229.28;6397175;27;20455;-63
2021/12/21 00:35:55;;;;;;;;;;;;;;;-3.58;77.36;96215.66;6396385;27;19923;-63
2021/12/21 00:39:05;;;;;;;;;;;;;;;-3.71;77.69;96235.63;6397224;27;19923;-62
2021/12/21 00:42:09;;;;;;;;;;;;;;;-3.63;77.23;96233.72;6396959;27;19923;-63
2021/12/21 00:45:10;;;;;;;;;;;;;;;-3.69;77.50;96233.84;6396658;27;20384;-62
2021/12/21 00:48:11;;;;;;;;;;;;;;;-3.70;77.65;96236.47;6396819;27;19923;-63
2021/12/21 00:51:15;;;;;;;;;;;;;;;-3.91;78.47;96223.13;6397034;27;19923;-63
2021/12/21 00:54:18;;;;;;;;;;;;;;;-3.67;78.23;96229.53;6398536;27;20021;-62
2021/12/21 00:57:22;;;;;;;;;;;;;;;-3.72;78.23;96233.91;6401787;27;20366;-63
2021/12/21 01:00:24;;;;;;;;;;;;;;;-3.79;78.51;96209.22;6402016;27;19929;-63
2021/12/21 01:03:25;;;;;;;;;;;;;;;-3.81;78.79;96213.53;6401755;27;19923;-63
2021/12/21 01:06:39;;;;;;;;;;;;;;;-3.87;79.07;96213.66;6401915;27;20307;-63
2021/12/21 01:25:35;;;;;;;;;;;;;;;-3.75;78.73;96208.25;6400067;27;20056;-63
2021/12/21 01:28:47;;;;;;;;;;;;;;;-3.74;79.27;96207.38;6381624;27;19945;-63
2021/12/21 01:32:04;;;;;;;;;;;;;;;-3.76;79.22;96188.59;6400162;27;19923;-63
2021/12/21 01:35:15;;;;;;;;;;;;;;;-3.55;78.82;96194.16;6399907;27;19923;-62
2021/12/21 01:39:05;;;;;;;;;;;;;;;-3.54;79.03;96183.00;6401062;27;19923;-61
2021/12/21 01:42:00;;;;;;;;;;;;;;;-3.69;78.86;96177.28;6389904;27;19931;-62
2021/12/21 01:51:44;;;;;;;;;;;;;;;-3.50;79.49;96166.63;6400706;27;19926;-62
2021/12/21 01:54:48;;;;;;;;;;;;;;;-3.41;78.72;96176.72;6381791;27;19923;-62
2021/12/21 01:57:51;;;;;;;;;;;;;;;-3.53;78.85;96171.84;6399980;27;20293;-62
2021/12/21 02:00:52;;;;;;;;;;;;;;;-3.52;79.07;96169.22;6399594;27;19923;-62
2021/12/21 02:03:53;;;;;;;;;;;;;;;-3.56;79.39;96177.06;6399951;27;20331;-62
2021/12/21 02:06:57;;;;;;;;;;;;;;;-3.64;79.51;96182.34;6400130;27;19927;-62
2021/12/21 02:10:00;;;;;;;;;;;;;;;-3.52;79.89;96173.53;6398886;27;19923;-61
2021/12/21 02:13:01;;;;;;;;;;;;;;;-3.27;79.23;96173.88;6398732;27;19923;-62
2021/12/21 02:16:03;;;;;;;;;;;;;;;-3.36;78.72;96159.47;6399918;27;20331;-62
2021/12/21 02:19:16;;;;;;;;;;;;;;;-3.48;79.20;96155.44;6398954;27;19929;-62
2021/12/21 02:22:20;;;;;;;;;;;;;;;-3.31;79.43;96142.22;6399667;27;20027;-63
2021/12/21 02:31:31;;;;;;;;;;;;;;;-3.36;79.66;96144.03;6398417;27;20319;-62
2021/12/21 02:34:35;;;;;;;;;;;;;;;-3.28;79.91;96154.19;6381501;27;19943;-61
2021/12/21 02:37:36;;;;;;;;;;;;;;;-3.24;79.77;96148.91;6398404;27;19922;-60
2021/12/21 02:40:37;;;;;;;;;;;;;;;-3.43;80.09;96157.91;6398019;27;19922;-62
2021/12/21 02:43:38;;;;;;;;;;;;;;;-3.55;80.88;96153.03;6398112;27;19923;-62
2021/12/21 02:46:39;;;;;;;;;;;;;;;-3.20;80.77;96163.41;6398220;27;19929;-63
2021/12/21 02:49:40;;;;;;;;;;;;;;;-3.11;80.29;96148.63;6397961;27;20430;-62
2021/12/21 02:52:42;;;;;;;;;;;;;;;-3.16;80.08;96126.44;6397604;27;19946;-62
2021/12/21 02:55:43;;;;;;;;;;;;;;;-3.10;80.06;96145.19;6398552;27;19923;-63
2021/12/21 02:58:46;;;;;;;;;;;;;;;-3.18;80.14;96148.75;6398704;27;19923;-64
2021/12/21 03:01:48;;;;;;;;;;;;;;;-3.05;79.73;96159.63;6397889;27;19919;-62
2021/12/21 03:04:51;;;;;;;;;;;;;;;-3.18;80.46;96143.63;6397688;27;19968;-63
2021/12/21 03:11:24;;;;;;;;;;;;;;;-3.08;79.89;96138.28;6398401;27;19923;-62
2021/12/21 03:14:23;;;;;;;;;;;;;;;-3.30;80.83;96146.47;6397573;27;19925;-63
2021/12/21 03:17:24;;;;;;;;;;;;;;;-3.19;80.85;96157.38;6396431;27;19927;-62
2021/12/21 03:20:26;;;;;;;;;;;;;;;-3.29;80.50;96145.59;6397493;27;19923;-62
2021/12/21 03:23:27;;;;;;;;;;;;;;;-3.25;81.43;96142.06;6397788;27;19946;-62
2021/12/21 03:26:28;;;;;;;;;;;;;;;-3.10;81.09;96124.59;6397873;27;19923;-63
2021/12/21 03:29:32;;;;;;;;;;;;;;;-3.14;81.08;96104.94;6396839;27;19926;-61
2021/12/21 03:32:38;;;;;;;;;;;;;;;-3.23;81.40;96099.16;6397727;27;20316;-62
2021/12/21 03:35:39;;;;;;;;;;;;;;;-3.10;81.23;96098.88;6398048;27;19931;-63
2021/12/21 03:38:46;;;;;;;;;;;;;;;-3.20;81.41;96093.06;6397276;27;20352;-63
2021/12/21 03:41:54;;;;;;;;;;;;;;;-3.01;81.38;96088.34;6396891;27;19930;-63
2021/12/21 03:44:55;;;;;;;;;;;;;;;-2.99;81.24;96086.59;6397862;27;19935;-63
2021/12/21 03:47:57;;;;;;;;;;;;;;;-3.00;81.10;96077.16;6396213;27;20504;-62
2021/12/21 03:50:58;;;;;;;;;;;;;;;-3.03;80.95;96065.22;6397595;27;19923;-62
2021/12/21 03:54:02;;;;;;;;;;;;;;;-2.85;81.03;96068.22;6397542;27;19930;-62
2021/12/21 03:57:03;;;;;;;;;;;;;;;-2.95;80.75;96057.31;6396383;27;19940;-62
2021/12/21 04:00:07;;;;;;;;;;;;;;;-3.20;81.23;96052.78;6396642;27;20350;-61
2021/12/21 04:03:08;;;;;;;;;;;;;;;-3.06;81.83;96042.13;6396581;27;19919;-62
2021/12/21 04:06:11;;;;;;;;;;;;;;;-3.24;81.85;96027.16;6397484;27;19923;-63
2021/12/21 04:09:13;;;;;;;;;;;;;;;-3.10;82.37;96011.38;6397394;27;19926;-62
2021/12/21 04:12:16;;;;;;;;;;;;;;;-3.19;82.22;96010.72;6397212;27;19923;-62
2021/12/21 04:15:23;;;;;;;;;;;;;;;-3.16;82.35;96015.78;6397167;27;19919;-63
2021/12/21 04:18:24;;;;;;;;;;;;;;;-3.11;82.85;96019.94;6396239;27;19923;-63
2021/12/21 04:21:28;;;;;;;;;;;;;;;-3.04;83.41;96018.94;6396312;27;19929;-62
2021/12/21 04:24:31;;;;;;;;;;;;;;;-2.81;82.09;96023.50;6395907;27;20169;-62
2021/12/21 04:27:32;;;;;;;;;;;;;;;-2.89;82.41;96026.25;6395597;27;19952;-62
2021/12/21 04:30:33;;;;;;;;;;;;;;;-2.65;81.56;96029.09;6400277;27;19923;-62
2021/12/21 04:33:34;;;;;;;;;;;;;;;-2.60;81.98;96034.97;6401381;27;20422;-63
2021/12/21 04:36:38;;;;;;;;;;;;;;;-2.53;80.91;96036.47;6401472;27;19923;-62
2021/12/21 04:39:53;;;;;;;;;;;;;;;-2.55;81.12;96046.84;6402077;27;19929;-63
2021/12/21 04:42:54;;;;;;;;;;;;;;;-2.51;81.39;96045.88;6401287;27;20011;-63
2021/12/21 04:45:55;;;;;;;;;;;;;;;-2.41;80.69;96049.03;6401268;27;19970;-61
2021/12/21 04:48:56;;;;;;;;;;;;;;;-2.35;80.44;96032.56;6401433;27;19923;-63
2021/12/21 04:52:04;;;;;;;;;;;;;;;-2.25;80.27;96034.00;6402156;27;19919;-63
2021/12/21 04:55:08;;;;;;;;;;;;;;;-2.38;80.95;96028.31;6401731;27;19923;-62
2021/12/21 04:58:09;;;;;;;;;;;;;;;-2.41;81.38;96030.97;6401118;27;19923;-62
2021/12/21 05:01:13;;;;;;;;;;;;;;;-2.19;80.94;96032.97;6401857;27;19929;-62
2021/12/21 05:04:17;;;;;;;;;;;;;;;-2.23;81.22;96036.53;6401700;27;19923;-62
2021/12/21 05:07:26;;;;;;;;;;;;;;;-2.15;81.23;96032.88;6401431;27;19923;-63
2021/12/21 05:10:27;;;;;;;;;;;;;;;-2.21;80.97;96024.44;6400264;27;19927;-62
2021/12/21 05:13:29;;;;;;;;;;;;;;;-2.14;81.04;96010.50;6400503;27;19923;-62
2021/12/21 05:16:33;;;;;;;;;;;;;;;-2.07;81.73;96007.72;6400122;27;19930;-63
2021/12/21 05:19:34;;;;;;;;;;;;;;;-1.78;80.64;96002.56;6401076;27;19930;-62
2021/12/21 05:22:35;;;;;;;;;;;;;;;-2.07;80.92;95991.38;6400799;27;20425;-62
2021/12/21 05:25:37;;;;;;;;;;;;;;;-1.99;81.39;95986.84;6400913;27;19923;-63
2021/12/21 05:28:40;;;;;;;;;;;;;;;-2.05;82.36;95994.75;6401066;27;19930;-62
2021/12/21 05:31:44;;;;;;;;;;;;;;;-1.98;82.14;95985.97;6400702;27;19923;-62
2021/12/21 05:34:45;;;;;;;;;;;;;;;-1.93;81.70;95989.22;6400986;27;19923;-63
2021/12/21 05:37:52;;;;;;;;;;;;;;;-2.00;81.36;95989.50;6400672;27;20388;-62
2021/12/21 05:41:01;;;;;;;;;;;;;;;-2.01;82.37;95990.34;6400260;27;19922;-62
2021/12/21 05:44:02;;;;;;;;;;;;;;;-2.02;82.20;95986.94;6399899;27;19923;-63
2021/12/21 05:47:03;;;;;;;;;;;;;;;-1.94;82.78;95972.09;6400572;27;20353;-63
2021/12/21 05:50:09;;;;;;;;;;;;;;;-1.77;82.78;95978.47;6400407;27;20401;-62
2021/12/21 05:53:10;;;;;;;;;;;;;;;-1.53;81.89;95964.78;6400735;27;19934;-63
2021/12/21 05:56:11;;;;;;;;;;;;;;;-1.50;81.59;95967.31;6398316;27;19923;-63
2021/12/21 05:59:12;;;;;;;;;;;;;;;-1.47;81.25;95953.44;6400098;27;20376;-61
2021/12/21 06:02:13;;;;;;;;;;;;;;;-1.38;81.10;95948.84;6399552;27;19930;-63
2021/12/21 06:05:20;;;;;;;;;;;;;;;-1.48;80.81;95950.00;6400369;27;20410;-63
2021/12/21 06:08:24;;;;;;;;;;;;;;;-1.30;81.25;95946.00;6400073;27;19971;-63
2021/12/21 06:11:26;;;;;;;;;;;;;;;-1.24;80.65;95937.22;6400027;27;19929;-62
2021/12/21 06:27:46;;;;;;;;;;;;;;;-0.94;81.00;95914.66;6348466;28;19923;-62
2021/12/21 06:30:48;;;;;;;;;;;;;;;-0.77;80.81;95914.06;6347905;28;20285;-63
2021/12/21 06:33:52;;;;;;;;;;;;;;;-0.73;80.24;95915.66;6348083;28;19923;-63
2021/12/21 06:36:55;;;;;;;;;;;;;;;-0.74;80.33;95911.38;6347828;28;19924;-63
2021/12/21 06:39:59;;;;;;;;;;;;;;;-0.65;80.70;95903.31;6347981;28;19924;-64
2021/12/21 06:43:03;;;;;;;;;;;;;;;-0.75;80.80;95904.53;6348060;28;20320;-63
2021/12/21 06:46:17;;;;;;;;;;;;;;;-0.73;80.44;95892.41;6348032;28;19963;-64
2021/12/21 06:52:38;;;;;;;;;;;;;;;-0.85;81.50;95885.94;6347095;28;19923;-63
2021/12/21 06:55:39;;;;;;;;;;;;;;;-0.73;81.76;95882.91;6346969;27;19923;-63
2021/12/21 06:58:40;;;;;;;;;;;;;;;-0.77;81.43;95875.31;6347472;28;19924;-63
2021/12/21 07:01:41;;;;;;;;;;;;;;;-0.80;81.51;95865.09;6347217;28;19924;-63
2021/12/21 07:04:42;;;;;;;;;;;;;;;-0.61;81.86;95858.38;6347506;28;19931;-62
2021/12/21 07:07:43;;;;;;;;;;;;;;;-0.66;81.21;95856.84;6347367;28;19928;-62
2021/12/21 07:11:00;;;;;;;;;;;;;;;-0.70;81.26;95843.22;6347203;28;19923;-64
2021/12/21 07:20:49;;;;;;;;;;;;;;;-0.47;81.52;95832.84;6347083;28;19923;-62
2021/12/21 07:23:52;;;;;;;;;;;;;;;-0.62;81.52;95843.78;6387548;27;19923;-63
2021/12/21 07:26:55;;;;;;;;;;;;;;;-0.60;82.10;95841.97;6397730;27;20304;-67
2021/12/21 07:29:59;;;;;;;;;;;;;;;-0.68;82.60;95837.09;6398322;27;19923;-64
2021/12/21 07:33:03;;;;;;;;;;;;;;;-0.58;82.56;95824.66;6380005;27;19953;-62
2021/12/21 07:36:04;;;;;;;;;;;;;;;-0.30;81.16;95823.63;6396583;27;19945;-63
2021/12/21 07:39:06;;;;;;;;;;;;;;;-0.67;81.80;95814.69;6397468;27;19923;-62
2021/12/21 07:42:07;;;;;;;;;;;;;;;-0.73;82.91;95815.75;6397651;27;20316;-63
2021/12/21 07:45:11;;;;;;;;;;;;;;;-0.77;83.28;95806.41;6398074;27;19959;-62
2021/12/21 07:48:12;;;;;;;;;;;;;;;-0.76;83.36;95812.44;6378678;27;20411;-63
2021/12/21 07:51:16;;;;;;;;;;;;;;;-0.64;83.61;95803.41;6397581;27;20017;-62
2021/12/21 07:54:20;;;;;;;;;;;;;;;-0.61;83.27;95793.78;6397711;27;19929;-63
2021/12/21 07:57:23;;;;;;;;;;;;;;;-0.58;83.35;95788.50;6397618;27;19923;-64
2021/12/21 08:00:24;;;;;;;;;;;;;;;-0.47;82.96;95790.66;6397690;27;19930;-62
2021/12/21 08:03:25;;;;;;;;;;;;;;;-0.26;82.79;95771.72;6396383;27;19934;-63
2021/12/21 08:06:32;;;;;;;;;;;;;;;-0.31;82.70;95767.63;6397507;27;19923;-63
2021/12/21 08:09:39;;;;;;;;;;;;;;;-0.17;82.45;95767.94;6397625;27;19923;-63
2021/12/21 08:12:43;;;;;;;;;;;;;;;-0.30;82.79;95764.16;6397345;27;19930;-63
2021/12/21 08:15:47;;;;;;;;;;;;;;;-0.35;82.40;95758.31;6397169;27;19922;-62
2021/12/21 08:18:48;;;;;;;;;;;;;;;-0.24;83.19;95756.16;6397447;27;19923;-62
2021/12/21 08:21:51;;;;;;;;;;;;;;;-0.21;82.57;95750.03;6397216;27;20010;-63
2021/12/21 08:24:52;;;;;;;;;;;;;;;-0.16;82.49;95746.34;6396609;27;19927;-62
2021/12/21 08:27:54;;;;;;;;;;;;;;;-0.14;83.14;95736.78;6397168;27;19926;-64
2021/12/21 08:31:00;;;;;;;;;;;;;;;0.01;82.51;95747.41;6397302;27;19930;-63
2021/12/21 08:34:01;;;;;;;;;;;;;;;-0.07;82.73;95733.03;6396799;27;19930;-63
2021/12/21 08:37:05;;;;;;;;;;;;;;;-0.16;82.71;95723.09;6397118;27;20285;-62
2021/12/21 08:40:10;;;;;;;;;;;;;;;-0.04;82.72;95721.72;6396054;27;19923;-62
2021/12/21 08:43:15;;;;;;;;;;;;;;;-0.16;82.98;95714.50;6397309;27;20414;-63
2021/12/21 08:46:18;;;;;;;;;;;;;;;-0.03;82.65;95708.75;6396920;27;19922;-63
2021/12/21 08:49:21;;;;;;;;;;;;;;;-0.17;83.07;95705.03;6395881;27;20435;-63
2021/12/21 08:52:24;;;;;;;;;;;;;;;-0.13;83.44;95707.44;6395994;27;19937;-64
2021/12/21 08:55:28;;;;;;;;;;;;;;;-0.06;83.51;95698.53;6396503;27;19923;-64
2021/12/21 08:58:29;;;;;;;;;;;;;;;-0.10;83.06;95696.97;6395663;27;19930;-63
2021/12/21 09:01:32;;;;;;;;;;;;;;;-0.10;83.30;95690.97;6396765;27;19923;-62
2021/12/21 09:04:36;;;;;;;;;;;;;;;-0.21;84.02;95688.81;6396458;27;20019;-62
2021/12/21 09:07:42;;;;;;;;;;;;;;;0.18;83.12;95675.13;6396684;27;19923;-63
2021/12/21 09:10:45;;;;;;;;;;;;;;;0.18;82.67;95675.94;6396629;27;19934;-62
2021/12/21 09:13:46;;;;;;;;;;;;;;;-0.05;83.39;95663.16;6396743;27;19927;-62
2021/12/21 09:16:50;;;;;;;;;;;;;;;0.20;83.11;95662.97;6399346;27;20402;-62
2021/12/21 09:19:52;;;;;;;;;;;;;;;0.15;82.47;95664.91;6400265;27;19923;-63
2021/12/21 09:22:57;;;;;;;;;;;;;;;0.04;82.58;95667.09;6400973;27;19926;-63
2021/12/21 09:26:00;;;;;;;;;;;;;;;-0.02;82.95;95652.69;6401031;27;19930;-63
2021/12/21 09:29:02;;;;;;;;;;;;;;;0.03;82.36;95662.81;6401400;27;20411;-63
2021/12/21 09:32:03;;;;;;;;;;;;;;;-0.13;82.72;95647.13;6381432;27;20307;-63
2021/12/21 09:35:07;;;;;;;;;;;;;;;-0.03;83.32;95646.69;6401070;27;19923;-63
2021/12/21 09:38:08;;;;;;;;;;;;;;;-0.24;83.38;95645.00;6400784;27;19930;-63
2021/12/21 09:41:09;;;;;;;;;;;;;;;-0.12;83.73;95631.53;6400962;27;19923;-63
2021/12/21 09:44:11;;;;;;;;;;;;;;;-0.14;83.60;95628.22;6400589;27;19930;-62
2021/12/21 09:47:12;;;;;;;;;;;;;;;-0.15;83.88;95631.69;6399400;27;19923;-62
2021/12/21 09:50:19;;;;;;;;;;;;;;;-0.20;84.34;95628.44;6400445;27;20346;-63
2021/12/21 09:53:21;;;;;;;;;;;;;;;-0.13;84.64;95614.38;6400217;27;19963;-62
2021/12/21 09:56:22;;;;;;;;;;;;;;;-0.15;84.08;95613.56;6400180;27;19930;-62
2021/12/21 09:59:23;;;;;;;;;;;;;;;-0.11;84.27;95602.22;6400422;27;19923;-62
2021/12/21 10:02:26;;;;;;;;;;;;;;;0.02;83.75;95606.84;6399334;27;19923;-63
2021/12/21 10:05:28;;;;;;;;;;;;;;;-0.07;83.82;95602.91;6400071;27;20307;-62
2021/12/21 10:08:30;;;;;;;;;;;;;;;-0.14;84.18;95591.16;6399779;27;19923;-63
2021/12/21 10:11:40;;;;;;;;;;;;;;;-0.10;84.91;95603.88;6399806;27;19947;-62
2021/12/21 10:14:41;;;;;;;;;;;;;;;-0.10;84.50;95597.88;6399778;27;19930;-62
2021/12/21 10:17:48;;;;;;;;;;;;;;;-0.05;84.57;95577.84;6399413;27;19923;-62
2021/12/21 10:20:52;;;;;;;;;;;;;;;-0.20;84.88;95581.91;6399788;27;19926;-63
2021/12/21 10:23:55;;;;;;;;;;;;;;;-0.28;84.87;95578.84;6399411;27;19923;-62
2021/12/21 10:27:09;;;;;;;;;;;;;;;-0.19;85.31;95578.44;6398284;27;19923;-62
2021/12/21 10:30:12;;;;;;;;;;;;;;;-0.22;85.82;95565.66;6399411;27;20018;-62
2021/12/21 10:33:16;;;;;;;;;;;;;;;-0.20;85.43;95574.16;6399309;27;20383;-63
2021/12/21 10:36:19;;;;;;;;;;;;;;;-0.23;85.33;95569.13;6398090;27;19923;-64
2021/12/21 10:39:24;;;;;;;;;;;;;;;-0.17;85.34;95571.47;6399307;27;19929;-63
2021/12/21 10:42:25;;;;;;;;;;;;;;;-0.20;85.81;95571.56;6399488;27;20367;-63
2021/12/21 10:45:26;;;;;;;;;;;;;;;-0.17;85.66;95566.28;6399022;27;19923;-62
2021/12/21 10:48:35;;;;;;;;;;;;;;;-0.09;85.45;95559.00;6399125;27;20410;-64
2021/12/21 10:51:39;;;;;;;;;;;;;;;-0.13;84.90;95567.81;6398281;27;20043;-63
2021/12/21 10:54:45;;;;;;;;;;;;;;;-0.19;85.40;95565.50;6398973;27;20424;-64
2021/12/21 10:57:46;;;;;;;;;;;;;;;-0.24;86.08;95564.88;6397593;27;19923;-63
2021/12/21 11:00:51;;;;;;;;;;;;;;;-0.17;85.92;95555.94;6398875;27;19945;-64
2021/12/21 11:03:55;;;;;;;;;;;;;;;-0.25;85.77;95563.19;6397859;27;19923;-63
2021/12/21 11:07:08;;;;;;;;;;;;;;;-0.06;85.95;95558.91;6397513;27;19922;-64
2021/12/21 11:10:26;;;;;;;;;;;;;;;-0.22;85.51;95552.72;6397803;27;20384;-62
2021/12/21 11:13:30;;;;;;;;;;;;;;;-0.17;86.11;95550.78;6398587;27;20384;-64
2021/12/21 11:16:51;;;;;;;;;;;;;;;-0.03;85.51;95553.59;6398153;27;19923;-62
2021/12/21 11:19:52;;;;;;;;;;;;;;;-0.31;86.26;95548.78;6398245;27;19962;-62
2021/12/21 11:22:56;;;;;;;;;;;;;;;-0.26;86.17;95556.31;6397917;27;19923;-64
2021/12/21 11:25:58;;;;;;;;;;;;;;;-0.11;86.17;95547.91;6398213;27;20404;-63
2021/12/21 11:29:01;;;;;;;;;;;;;;;-0.12;85.84;95545.38;6397903;27;19926;-62
2021/12/21 11:32:03;;;;;;;;;;;;;;;0.03;86.44;95533.53;6397274;27;19923;-63
2021/12/21 11:38:17;;;;;;;;;;;;;;;-0.02;85.95;95519.06;6397429;27;20302;-64
2021/12/21 11:41:21;;;;;;;;;;;;;;;0.02;85.67;95516.34;6397516;27;19923;-63
2021/12/21 11:44:43;;;;;;;;;;;;;;;0.01;86.07;95510.31;6397408;27;19927;-62
2021/12/21 11:47:47;;;;;;;;;;;;;;;-0.11;86.31;95519.47;6397538;27;19923;-63
2021/12/21 11:50:50;;;;;;;;;;;;;;;-0.18;86.37;95507.72;6378324;27;19923;-64
2021/12/21 11:53:55;;;;;;;;;;;;;;;-0.06;87.07;95506.31;6397314;27;20304;-62
2021/12/21 11:57:02;;;;;;;;;;;;;;;-0.15;85.95;95507.59;6396047;27;20410;-63
2021/12/21 12:00:06;;;;;;;;;;;;;;;0.04;86.04;95504.19;6378086;27;19923;-63
2021/12/21 12:03:12;;;;;;;;;;;;;;;-0.04;86.47;95497.59;6397014;27;19923;-63
2021/12/21 12:06:15;;;;;;;;;;;;;;;-0.21;86.73;95492.34;6397539;27;20311;-62
2021/12/21 12:09:22;;;;;;;;;;;;;;;0.07;86.94;95491.09;6396134;27;19923;-62
2021/12/21 12:12:28;;;;;;;;;;;;;;;-0.10;86.34;95489.28;6396995;27;19927;-63
2021/12/21 12:15:39;;;;;;;;;;;;;;;0.21;86.20;95480.97;6396839;27;19922;-64
2021/12/21 12:18:42;;;;;;;;;;;;;;;-0.04;86.33;95484.66;6396276;27;19927;-63
2021/12/21 12:21:59;;;;;;;;;;;;;;;0.04;87.00;95478.31;6395714;27;20027;-62
2021/12/21 12:25:01;;;;;;;;;;;;;;;0.10;86.49;95483.22;6396460;27;19923;-63
2021/12/21 12:28:02;;;;;;;;;;;;;;;0.07;85.94;95491.09;6396688;27;19923;-63
2021/12/21 12:31:05;;;;;;;;;;;;;;;-0.02;86.35;95482.84;6396114;27;19923;-63
2021/12/21 12:34:09;;;;;;;;;;;;;;;-0.15;87.12;95476.56;6396931;27;20022;-63
2021/12/21 12:37:18;;;;;;;;;;;;;;;0.10;86.97;95480.63;6396397;27;19927;-63
2021/12/21 12:40:25;;;;;;;;;;;;;;;0.04;87.22;95486.91;6396784;27;20319;-64
2021/12/21 12:43:27;;;;;;;;;;;;;;;-0.13;86.63;95468.75;6397085;27;19923;-64
2021/12/21 12:46:31;;;;;;;;;;;;;;;-0.06;87.19;95471.00;6397043;27;19923;-63
2021/12/21 12:49:33;;;;;;;;;;;;;;;0.02;87.11;95451.69;6396298;27;19999;-63
2021/12/21 12:52:47;;;;;;;;;;;;;;;-0.14;87.24;95452.41;6402072;27;19923;-64
2021/12/21 12:55:58;;;;;;;;;;;;;;;-0.03;87.76;95436.38;6400647;27;20009;-62
2021/12/21 12:59:01;;;;;;;;;;;;;;;-0.05;87.56;95441.63;6400791;27;20319;-63
2021/12/21 13:02:10;;;;;;;;;;;;;;;-0.03;87.40;95442.41;6401554;27;19927;-64
2021/12/21 13:05:14;;;;;;;;;;;;;;;-0.06;87.20;95439.97;6401370;27;19923;-63
2021/12/21 13:08:21;;;;;;;;;;;;;;;0.07;87.54;95439.38;6401371;27;19923;-64
2021/12/21 13:11:31;;;;;;;;;;;;;;;0.03;87.84;95445.59;6401505;27;19927;-64
2021/12/21 13:14:31;;;;;;;;;;;;;;;0.04;87.21;95444.72;6401513;27;20384;-64
2021/12/21 13:17:35;;;;;;;;;;;;;;;0.18;87.47;95445.72;6400745;27;19930;-64
2021/12/21 13:20:37;;;;;;;;;;;;;;;0.13;86.95;95449.44;6400599;27;19930;-66
2021/12/21 13:23:41;;;;;;;;;;;;;;;0.27;87.01;95447.03;6400454;27;19923;-66
2021/12/21 13:26:48;;;;;;;;;;;;;;;0.20;86.79;95436.16;6401186;27;20304;-64
2021/12/21 13:29:49;;;;;;;;;;;;;;;0.23;86.93;95440.34;6400941;27;19923;-64
2021/12/21 13:32:55;;;;;;;;;;;;;;;0.04;87.25;95431.78;6401036;27;20018;-64
2021/12/21 13:36:04;;;;;;;;;;;;;;;0.01;87.72;95437.09;6401191;27;19923;-64
2021/12/21 13:39:14;;;;;;;;;;;;;;;0.10;87.71;95423.72;6399752;27;20347;-65
2021/12/21 13:42:22;;;;;;;;;;;;;;;0.36;86.74;95420.72;6401024;27;19930;-66
2021/12/21 13:45:24;;;;;;;;;;;;;;;0.32;86.58;95419.22;6400015;27;19930;-65
2021/12/21 13:48:29;;;;;;;;;;;;;;;0.31;86.62;95414.97;6400615;27;20374;-65
2021/12/21 13:51:36;;;;;;;;;;;;;;;0.52;86.54;95425.19;6400660;27;20391;-66
2021/12/21 13:54:39;;;;;;;;;;;;;;;0.36;86.44;95420.72;6400376;27;19923;-66
2021/12/21 13:57:46;;;;;;;;;;;;;;;0.23;87.23;95422.25;6400491;27;19934;-65
2021/12/21 14:00:53;;;;;;;;;;;;;;;0.19;86.83;95423.28;6400141;27;20387;-65
2021/12/21 14:03:57;;;;;;;;;;;;;;;0.34;86.37;95422.56;6399434;27;19922;-65
2021/12/21 14:06:59;;;;;;;;;;;;;;;0.34;86.72;95407.06;6400198;27;19923;-65
2021/12/21 14:10:08;;;;;;;;;;;;;;;0.15;86.52;95407.06;6399888;27;20307;-66
2021/12/21 14:13:10;;;;;;;;;;;;;;;0.40;86.95;95386.03;6400017;27;19922;-65
2021/12/21 14:16:12;;;;;;;;;;;;;;;0.36;86.99;95379.34;6399888;27;19923;-67
2021/12/21 14:19:16;;;;;;;;;;;;;;;0.43;86.04;95379.88;6399940;27;19930;-67
2021/12/21 14:22:19;;;;;;;;;;;;;;;0.48;86.38;95377.88;6399027;27;19923;-69
2021/12/21 14:25:23;;;;;;;;;;;;;;;0.48;85.91;95377.06;6398987;27;19923;-69
2021/12/21 14:28:24;;;;;;;;;;;;;;;0.46;85.63;95368.56;6399406;27;19945;-69
2021/12/21 14:31:39;;;;;;;;;;;;;;;0.27;86.39;95366.00;6381166;27;19923;-70
2021/12/21 14:34:46;;;;;;;;;;;;;;;0.28;86.64;95355.56;6399729;27;19927;-69
2021/12/21 14:37:47;;;;;;;;;;;;;;;0.15;87.40;95370.03;6399571;27;19923;-70
2021/12/21 14:40:52;;;;;;;;;;;;;;;0.24;87.24;95369.59;6398953;27;20078;-69
2021/12/21 14:44:19;;;;;;;;;;;;;;;0.27;86.79;95363.44;6399428;27;19926;-69
2021/12/21 14:47:30;;;;;;;;;;;;;;;0.31;86.65;95364.94;6393933;27;19932;-69
2021/12/21 14:50:38;;;;;;;;;;;;;;;0.36;86.29;95363.81;6398134;27;19919;-71
2021/12/21 14:53:47;;;;;;;;;;;;;;;0.21;86.68;95364.56;6380580;27;19923;-69
2021/12/21 14:56:51;;;;;;;;;;;;;;;0.15;87.05;95370.03;6399019;27;20388;-69
2021/12/21 14:59:55;;;;;;;;;;;;;;;0.28;87.48;95360.75;6399026;27;19923;-71
2021/12/21 15:03:02;;;;;;;;;;;;;;;0.32;86.96;95357.13;6398887;27;19976;-68
2021/12/21 15:06:04;;;;;;;;;;;;;;;0.32;86.93;95351.13;6398765;27;19927;-68
2021/12/21 15:09:07;;;;;;;;;;;;;;;0.30;86.45;95353.75;6398765;27;19945;-67
2021/12/21 15:12:24;;;;;;;;;;;;;;;0.51;86.50;95356.19;6398075;27;20376;-66
2021/12/21 15:15:28;;;;;;;;;;;;;;;0.38;86.85;95362.00;6397286;27;19930;-66
2021/12/21 15:18:30;;;;;;;;;;;;;;;0.50;86.13;95364.88;6397341;27;19970;-65
2021/12/21 15:21:31;;;;;;;;;;;;;;;0.30;86.37;95369.28;6397017;27;19923;-66
2021/12/21 15:24:32;;;;;;;;;;;;;;;0.20;86.43;95379.25;6398272;27;20395;-65
2021/12/21 15:27:33;;;;;;;;;;;;;;;0.16;86.60;95376.88;6397512;27;20290;-65
2021/12/21 15:30:37;;;;;;;;;;;;;;;0.27;86.75;95372.03;6397988;27;19923;-65
2021/12/21 15:33:42;;;;;;;;;;;;;;;0.39;87.44;95379.19;6398124;27;19923;-65
2021/12/21 15:36:47;;;;;;;;;;;;;;;0.39;86.48;95361.06;6398034;27;19923;-65
2021/12/21 15:39:48;;;;;;;;;;;;;;;0.38;86.79;95369.75;6397300;27;20315;-65
2021/12/21 15:42:51;;;;;;;;;;;;;;;0.39;86.64;95379.19;6398051;27;20021;-65
2021/12/21 15:45:52;;;;;;;;;;;;;;;0.52;86.50;95389.78;6397731;27;19927;-65
2021/12/21 15:48:54;;;;;;;;;;;;;;;0.48;85.99;95379.66;6396892;27;20022;-66
2021/12/21 15:51:55;;;;;;;;;;;;;;;0.60;86.00;95379.91;6397704;27;19934;-68
2021/12/21 15:54:58;;;;;;;;;;;;;;;0.52;85.48;95383.78;6397864;27;19987;-65
2021/12/21 15:57:59;;;;;;;;;;;;;;;0.44;86.10;95376.38;6397189;27;19979;-65
2021/12/21 16:01:00;;;;;;;;;;;;;;;0.44;86.39;95372.03;6396069;27;19923;-65
2021/12/21 16:04:04;;;;;;;;;;;;;;;0.39;86.44;95363.66;6397362;27;20340;-64
2021/12/21 16:07:08;;;;;;;;;;;;;;;0.59;86.15;95370.44;6397419;27;19969;-65
2021/12/21 16:10:11;;;;;;;;;;;;;;;0.51;86.02;95371.72;6396326;27;19923;-65
2021/12/21 16:13:12;;;;;;;;;;;;;;;0.45;86.05;95367.69;6395898;27;20300;-64
2021/12/21 16:16:13;;;;;;;;;;;;;;;0.58;86.27;95357.59;6396455;27;19962;-65
2021/12/21 16:19:17;;;;;;;;;;;;;;;0.42;85.66;95353.16;6396573;27;19923;-65
2021/12/21 16:22:21;;;;;;;;;;;;;;;0.40;86.42;95360.16;6397507;27;19927;-65
2021/12/21 16:25:24;;;;;;;;;;;;;;;0.29;86.59;95362.44;6401009;27;19930;-66
2021/12/21 16:28:28;;;;;;;;;;;;;;;0.34;86.82;95365.66;6402777;27;19927;-66
2021/12/21 16:31:32;;;;;;;;;;;;;;;0.32;86.73;95364.88;6402556;27;19923;-65
2021/12/21 16:34:36;;;;;;;;;;;;;;;0.41;86.79;95354.06;6402416;27;20406;-65
2021/12/21 16:37:38;;;;;;;;;;;;;;;0.49;86.82;95351.13;6401419;27;19923;-65
2021/12/21 16:40:41;;;;;;;;;;;;;;;0.35;86.73;95351.78;6402170;27;20407;-65
2021/12/21 16:43:45;;;;;;;;;;;;;;;0.50;86.02;95363.13;6401887;27;19927;-64
2021/12/21 16:46:52;;;;;;;;;;;;;;;0.61;85.41;95360.03;6402124;27;19930;-65
2021/12/21 16:49:55;;;;;;;;;;;;;;;0.52;85.83;95369.06;6402243;27;19934;-65
2021/12/21 16:53:00;;;;;;;;;;;;;;;0.55;85.63;95365.50;6401922;27;19929;-65
2021/12/21 16:56:05;;;;;;;;;;;;;;;0.41;86.00;95364.44;6402088;27;19923;-64
2021/12/21 16:59:10;;;;;;;;;;;;;;;0.46;86.02;95359.03;6401446;27;19923;-65
2021/12/21 17:02:12;;;;;;;;;;;;;;;0.42;85.92;95358.31;6401109;27;19957;-64
2021/12/21 17:05:16;;;;;;;;;;;;;;;0.44;86.47;95353.91;6401495;27;19919;-65
2021/12/21 17:08:18;;;;;;;;;;;;;;;0.53;86.33;95350.03;6401753;27;20327;-64